sensor_id;sensor_type;location;lat;lon;timestamp;pressure;altitude;pressure_sealevel;temperature;humidity
23229;BME280;11783;50.350;6.576;2023-08-31T00:00:29;95603.88;;;11.36;100.00
23229;BME280;11783;50.350;6.576;2023-08-31T00:02:55;95598.00;;;11.34;100.00
23229;BME280;11783;50.350;6.576;2023-08-31T00:05:20;95599.59;;;11.19;100.00
23229;BME280;11783;50.350;6.576;2023-08-31T00:07:45;95601.72;;;11.22;100.00
23229;BME280;11783;50.350;6.576;2023-08-31T00:10:11;95600.94;;;11.32;100.00
23229;BME280;11783;50.350;6.576;2023-08-31T00:12:37;95603.31;;;11.18;100.00
23229;BME280;11783;50.350;6.576;2023-08-31T00:15:03;95598.00;;;11.18;100.00
23229;BME280;11783;50.350;6.576;2023-08-31T00:17:31;95592.94;;;11.22;100.00
23229;BME280;11783;50.350;6.576;2023-08-31T00:19:57;95592.41;;;11.30;100.00
23229;BME280;11783;50.350;6.576;2023-08-31T00:22:23;95590.81;;;11.29;100.00
23229;BME280;11783;50.350;6.576;2023-08-31T00:24:49;95585.50;;;11.29;100.00
23229;BME280;11783;50.350;6.576;2023-08-31T00:27:16;95592.09;;;11.11;100.00
23229;BME280;11783;50.350;6.576;2023-08-31T00:29:43;95590.81;;;11.24;100.00
23229;BME280;11783;50.350;6.576;2023-08-31T00:32:15;95591.34;;;11.21;100.00
23229;BME280;11783;50.350;6.576;2023-08-31T00:34:40;95587.09;;;11.25;100.00
23229;BME280;11783;50.350;6.576;2023-08-31T00:37:05;95586.03;;;11.31;100.00
23229;BME280;11783;50.350;6.576;2023-08-31T00:39:31;95577.81;;;11.38;100.00
23229;BME280;11783;50.350;6.576;2023-08-31T00:41:58;95574.91;;;11.39;100.00
23229;BME280;11783;50.350;6.576;2023-08-31T00:44:24;95566.66;;;11.46;100.00
23229;BME280;11783;50.350;6.576;2023-08-31T00:46:49;95570.38;;;11.45;100.00
23229;BME280;11783;50.350;6.576;2023-08-31T00:49:15;95564.50;;;11.43;100.00
23229;BME280;11783;50.350;6.576;2023-08-31T00:51:40;95566.91;;;11.34;100.00
23229;BME280;11783;50.350;6.576;2023-08-31T00:54:07;95564.50;;;11.38;100.00
23229;BME280;11783;50.350;6.576;2023-08-31T00:56:32;95571.41;;;11.34;100.00
23229;BME280;11783;50.350;6.576;2023-08-31T00:58:58;95576.47;;;11.30;100.00
23229;BME280;11783;50.350;6.576;2023-08-31T01:01:39;95581.25;;;11.28;100.00
23229;BME280;11783;50.350;6.576;2023-08-31T01:12:06;95586.03;;;11.16;100.00
23229;BME280;11783;50.350;6.576;2023-08-31T01:14:39;95581.47;;;11.11;100.00
23229;BME280;11783;50.350;6.576;2023-08-31T01:17:08;95579.59;;;11.07;100.00
23229;BME280;11783;50.350;6.576;2023-08-31T01:19:50;95575.06;;;10.97;100.00
23229;BME280;11783;50.350;6.576;2023-08-31T01:22:39;95586.72;;;10.91;100.00
23229;BME280;11783;50.350;6.576;2023-08-31T01:25:06;95588.31;;;10.92;100.00
23229;BME280;11783;50.350;6.576;2023-08-31T01:27:35;95585.09;;;10.85;100.00
23229;BME280;11783;50.350;6.576;2023-08-31T01:30:01;95585.91;;;10.85;100.00
23229;BME280;11783;50.350;6.576;2023-08-31T01:32:28;95586.16;;;10.84;100.00
23229;BME280;11783;50.350;6.576;2023-08-31T01:34:54;95590.69;;;10.88;100.00
23229;BME280;11783;50.350;6.576;2023-08-31T01:37:59;95588.84;;;10.94;100.00
23229;BME280;11783;50.350;6.576;2023-08-31T01:40:40;95594.16;;;10.89;100.00
23229;BME280;11783;50.350;6.576;2023-08-31T01:43:10;95600.53;;;10.83;100.00
23229;BME280;11783;50.350;6.576;2023-08-31T01:45:36;95594.34;;;10.77;100.00
23229;BME280;11783;50.350;6.576;2023-08-31T01:48:04;95598.59;;;10.73;100.00
23229;BME280;11783;50.350;6.576;2023-08-31T01:50:29;95602.91;;;10.79;100.00
23229;BME280;11783;50.350;6.576;2023-08-31T01:52:54;95606.91;;;10.82;100.00
23229;BME280;11783;50.350;6.576;2023-08-31T01:55:21;95601.25;;;10.73;100.00
23229;BME280;11783;50.350;6.576;2023-08-31T01:57:47;95599.66;;;10.67;100.00
23229;BME280;11783;50.350;6.576;2023-08-31T02:00:13;95612.38;;;10.65;100.00
23229;BME280;11783;50.350;6.576;2023-08-31T02:02:39;95608.09;;;10.59;100.00
23229;BME280;11783;50.350;6.576;2023-08-31T02:05:04;95608.66;;;10.61;100.00
23229;BME280;11783;50.350;6.576;2023-08-31T02:07:31;95606.22;;;10.59;100.00
23229;BME280;11783;50.350;6.576;2023-08-31T02:09:56;95608.66;;;10.61;100.00
23229;BME280;11783;50.350;6.576;2023-08-31T02:12:22;95611.78;;;10.53;100.00
23229;BME280;11783;50.350;6.576;2023-08-31T02:14:47;95614.47;;;10.58;100.00
23229;BME280;11783;50.350;6.576;2023-08-31T02:17:13;95612.38;;;10.60;100.00
23229;BME280;11783;50.350;6.576;2023-08-31T02:19:38;95617.34;;;10.51;100.00
23229;BME280;11783;50.350;6.576;2023-08-31T02:22:03;95614.44;;;10.53;100.00
23229;BME280;11783;50.350;6.576;2023-08-31T02:24:29;95626.13;;;10.52;100.00
23229;BME280;11783;50.350;6.576;2023-08-31T02:26:55;95626.41;;;10.55;100.00
23229;BME280;11783;50.350;6.576;2023-08-31T02:29:21;95623.72;;;10.50;100.00
23229;BME280;11783;50.350;6.576;2023-08-31T02:31:46;95624.94;;;10.32;100.00
23229;BME280;11783;50.350;6.576;2023-08-31T02:34:11;95625.50;;;10.35;100.00
23229;BME280;11783;50.350;6.576;2023-08-31T02:36:37;95633.75;;;10.38;100.00
23229;BME280;11783;50.350;6.576;2023-08-31T02:39:02;95627.88;;;10.36;100.00
23229;BME280;11783;50.350;6.576;2023-08-31T02:41:29;95634.84;;;10.42;100.00
23229;BME280;11783;50.350;6.576;2023-08-31T02:43:54;95624.22;;;10.42;100.00
23229;BME280;11783;50.350;6.576;2023-08-31T02:46:19;95622.84;;;10.40;100.00
23229;BME280;11783;50.350;6.576;2023-08-31T02:48:45;95631.94;;;10.44;100.00
23229;BME280;11783;50.350;6.576;2023-08-31T02:51:11;95620.00;;;10.51;100.00
23229;BME280;11783;50.350;6.576;2023-08-31T02:53:36;95625.03;;;10.43;100.00
23229;BME280;11783;50.350;6.576;2023-08-31T02:56:02;95622.81;;;10.29;100.00
23229;BME280;11783;50.350;6.576;2023-08-31T02:58:28;95623.34;;;10.31;100.00
23229;BME280;11783;50.350;6.576;2023-08-31T03:00:53;95619.88;;;10.26;100.00
23229;BME280;11783;50.350;6.576;2023-08-31T03:03:19;95624.88;;;10.22;100.00
23229;BME280;11783;50.350;6.576;2023-08-31T03:05:45;95631.28;;;10.26;100.00
23229;BME280;11783;50.350;6.576;2023-08-31T03:08:10;95627.31;;;10.29;100.00
23229;BME280;11783;50.350;6.576;2023-08-31T03:10:36;95629.84;;;10.19;100.00
23229;BME280;11783;50.350;6.576;2023-08-31T03:13:02;95626.66;;;10.17;100.00
23229;BME280;11783;50.350;6.576;2023-08-31T03:15:28;95628.81;;;10.20;100.00
23229;BME280;11783;50.350;6.576;2023-08-31T03:17:53;95633.00;;;10.11;100.00
23229;BME280;11783;50.350;6.576;2023-08-31T03:20:19;95635.13;;;10.14;100.00
23229;BME280;11783;50.350;6.576;2023-08-31T03:22:44;95635.94;;;10.14;100.00
23229;BME280;11783;50.350;6.576;2023-08-31T03:25:10;95638.84;;;10.13;100.00
23229;BME280;11783;50.350;6.576;2023-08-31T03:27:35;95641.75;;;10.11;100.00
23229;BME280;11783;50.350;6.576;2023-08-31T03:30:01;95639.41;;;10.15;100.00
23229;BME280;11783;50.350;6.576;2023-08-31T03:32:27;95640.69;;;10.07;100.00
23229;BME280;11783;50.350;6.576;2023-08-31T03:34:52;95639.09;;;10.11;100.00
23229;BME280;11783;50.350;6.576;2023-08-31T03:37:17;95640.41;;;10.09;100.00
23229;BME280;11783;50.350;6.576;2023-08-31T03:39:43;95642.56;;;10.12;100.00
23229;BME280;11783;50.350;6.576;2023-08-31T03:42:11;95652.94;;;10.13;100.00
23229;BME280;11783;50.350;6.576;2023-08-31T03:44:36;95640.13;;;10.05;100.00
23229;BME280;11783;50.350;6.576;2023-08-31T03:47:03;95645.13;;;10.01;100.00
23229;BME280;11783;50.350;6.576;2023-08-31T03:49:28;95646.41;;;9.94;100.00
23229;BME280;11783;50.350;6.576;2023-08-31T03:51:53;95637.63;;;9.93;100.00
23229;BME280;11783;50.350;6.576;2023-08-31T03:54:20;95640.59;;;9.97;100.00
23229;BME280;11783;50.350;6.576;2023-08-31T03:56:45;95636.06;;;9.97;100.00
23229;BME280;11783;50.350;6.576;2023-08-31T03:59:10;95642.69;;;9.95;100.00
23229;BME280;11783;50.350;6.576;2023-08-31T04:01:36;95639.53;;;9.98;100.00
23229;BME280;11783;50.350;6.576;2023-08-31T04:04:01;95645.09;;;9.96;100.00
23229;BME280;11783;50.350;6.576;2023-08-31T04:06:27;95651.59;;;9.84;100.00
23229;BME280;11783;50.350;6.576;2023-08-31T04:08:53;95651.59;;;9.84;100.00
23229;BME280;11783;50.350;6.576;2023-08-31T04:11:19;95669.34;;;9.78;100.00
23229;BME280;11783;50.350;6.576;2023-08-31T04:13:44;95668.59;;;9.83;100.00
23229;BME280;11783;50.350;6.576;2023-08-31T04:16:09;95671.06;;;9.89;100.00
23229;BME280;11783;50.350;6.576;2023-08-31T04:18:35;95673.16;;;9.87;100.00
23229;BME280;11783;50.350;6.576;2023-08-31T04:21:00;95674.00;;;9.93;100.00
23229;BME280;11783;50.350;6.576;2023-08-31T04:23:28;95671.88;;;9.95;100.00
23229;BME280;11783;50.350;6.576;2023-08-31T04:25:54;95671.09;;;9.94;100.00
23229;BME280;11783;50.350;6.576;2023-08-31T04:28:20;95672.94;;;9.94;100.00
23229;BME280;11783;50.350;6.576;2023-08-31T04:30:45;95666.03;;;9.93;100.00
23229;BME280;11783;50.350;6.576;2023-08-31T04:33:11;95668.47;;;9.99;100.00
23229;BME280;11783;50.350;6.576;2023-08-31T04:35:36;95664.50;;;10.02;100.00
23229;BME280;11783;50.350;6.576;2023-08-31T04:38:01;95668.75;;;10.03;100.00
23229;BME280;11783;50.350;6.576;2023-08-31T04:40:28;95672.69;;;9.95;100.00
23229;BME280;11783;50.350;6.576;2023-08-31T04:42:54;95667.16;;;10.02;100.00
23229;BME280;11783;50.350;6.576;2023-08-31T04:45:19;95670.63;;;10.02;100.00
23229;BME280;11783;50.350;6.576;2023-08-31T04:47:45;95662.19;;;10.11;100.00
23229;BME280;11783;50.350;6.576;2023-08-31T04:50:10;95668.59;;;10.15;100.00
23229;BME280;11783;50.350;6.576;2023-08-31T04:52:36;95679.19;;;10.10;100.00
23229;BME280;11783;50.350;6.576;2023-08-31T04:55:02;95675.81;;;10.19;100.00
23229;BME280;11783;50.350;6.576;2023-08-31T04:57:29;95677.41;;;10.20;100.00
23229;BME280;11783;50.350;6.576;2023-08-31T04:59:54;95684.50;;;10.10;100.00
23229;BME280;11783;50.350;6.576;2023-08-31T05:02:19;95683.72;;;10.14;100.00
23229;BME280;11783;50.350;6.576;2023-08-31T05:04:45;95692.22;;;10.11;100.00
23229;BME280;11783;50.350;6.576;2023-08-31T05:07:10;95697.56;;;10.16;100.00
23229;BME280;11783;50.350;6.576;2023-08-31T05:09:36;95695.13;;;10.10;100.00
23229;BME280;11783;50.350;6.576;2023-08-31T05:12:02;95699.91;;;10.13;100.00
23229;BME280;11783;50.350;6.576;2023-08-31T05:14:30;95699.97;;;10.18;100.00
23229;BME280;11783;50.350;6.576;2023-08-31T05:16:56;95703.16;;;10.20;100.00
23229;BME280;11783;50.350;6.576;2023-08-31T05:19:21;95707.91;;;10.18;100.00
23229;BME280;11783;50.350;6.576;2023-08-31T05:21:47;95708.69;;;10.13;100.00
23229;BME280;11783;50.350;6.576;2023-08-31T05:24:13;95711.38;;;10.18;100.00
23229;BME280;11783;50.350;6.576;2023-08-31T05:26:39;95709.09;;;10.27;100.00
23229;BME280;11783;50.350;6.576;2023-08-31T05:29:05;95711.25;;;10.30;100.00
23229;BME280;11783;50.350;6.576;2023-08-31T05:31:30;95692.66;;;10.30;100.00
23229;BME280;11783;50.350;6.576;2023-08-31T05:33:56;95711.00;;;10.31;100.00
23229;BME280;11783;50.350;6.576;2023-08-31T05:36:21;95716.22;;;10.21;100.00
23229;BME280;11783;50.350;6.576;2023-08-31T05:38:46;95725.63;;;10.34;100.00
23229;BME280;11783;50.350;6.576;2023-08-31T05:41:12;95719.00;;;10.37;100.00
23229;BME280;11783;50.350;6.576;2023-08-31T05:43:37;95719.78;;;10.37;100.00
23229;BME280;11783;50.350;6.576;2023-08-31T05:46:06;95710.28;;;10.41;100.00
23229;BME280;11783;50.350;6.576;2023-08-31T05:48:32;95715.66;;;10.51;100.00
23229;BME280;11783;50.350;6.576;2023-08-31T05:50:58;95719.38;;;10.50;100.00
23229;BME280;11783;50.350;6.576;2023-08-31T05:53:23;95721.22;;;10.50;100.00
23229;BME280;11783;50.350;6.576;2023-08-31T05:55:49;95726.56;;;10.55;100.00
23229;BME280;11783;50.350;6.576;2023-08-31T05:58:14;95727.88;;;10.52;100.00
23229;BME280;11783;50.350;6.576;2023-08-31T06:00:40;95720.44;;;10.49;100.00
23229;BME280;11783;50.350;6.576;2023-08-31T06:03:05;95728.47;;;10.59;100.00
23229;BME280;11783;50.350;6.576;2023-08-31T06:05:31;95721.88;;;10.62;100.00
23229;BME280;11783;50.350;6.576;2023-08-31T06:07:57;95730.63;;;10.63;100.00
23229;BME280;11783;50.350;6.576;2023-08-31T06:10:23;95744.63;;;10.53;100.00
23229;BME280;11783;50.350;6.576;2023-08-31T06:12:52;95739.69;;;10.67;100.00
23229;BME280;11783;50.350;6.576;2023-08-31T06:15:17;95739.19;;;10.70;100.00
23229;BME280;11783;50.350;6.576;2023-08-31T06:17:44;95743.19;;;10.72;100.00
23229;BME280;11783;50.350;6.576;2023-08-31T06:20:09;95741.34;;;10.78;100.00
23229;BME280;11783;50.350;6.576;2023-08-31T06:22:35;95738.22;;;10.81;100.00
23229;BME280;11783;50.350;6.576;2023-08-31T06:25:01;95744.88;;;10.88;100.00
23229;BME280;11783;50.350;6.576;2023-08-31T06:27:26;95746.25;;;10.96;100.00
23229;BME280;11783;50.350;6.576;2023-08-31T06:29:52;95751.34;;;10.98;100.00
23229;BME280;11783;50.350;6.576;2023-08-31T06:32:17;95761.41;;;10.96;100.00
23229;BME280;11783;50.350;6.576;2023-08-31T06:34:44;95751.81;;;10.95;100.00
23229;BME280;11783;50.350;6.576;2023-08-31T06:37:09;95758.47;;;10.92;100.00
23229;BME280;11783;50.350;6.576;2023-08-31T06:39:34;95759.06;;;10.99;100.00
23229;BME280;11783;50.350;6.576;2023-08-31T06:42:01;95762.34;;;11.16;100.00
23229;BME280;11783;50.350;6.576;2023-08-31T06:44:26;95774.06;;;11.20;100.00
23229;BME280;11783;50.350;6.576;2023-08-31T06:46:51;95766.53;;;11.07;100.00
23229;BME280;11783;50.350;6.576;2023-08-31T06:49:17;95765.28;;;11.20;100.00
23229;BME280;11783;50.350;6.576;2023-08-31T06:51:42;95760.53;;;11.32;100.00
23229;BME280;11783;50.350;6.576;2023-08-31T06:54:07;95760.28;;;11.34;100.00
23229;BME280;11783;50.350;6.576;2023-08-31T06:56:33;95761.66;;;11.41;100.00
23229;BME280;11783;50.350;6.576;2023-08-31T06:58:59;95769.41;;;11.48;100.00
23229;BME280;11783;50.350;6.576;2023-08-31T07:01:24;95779.06;;;11.59;100.00
23229;BME280;11783;50.350;6.576;2023-08-31T07:03:50;95780.66;;;11.60;100.00
23229;BME280;11783;50.350;6.576;2023-08-31T07:06:15;95785.44;;;11.58;100.00
23229;BME280;11783;50.350;6.576;2023-08-31T07:08:40;95790.78;;;11.63;100.00
23229;BME280;11783;50.350;6.576;2023-08-31T07:11:07;95791.03;;;11.67;100.00
23229;BME280;11783;50.350;6.576;2023-08-31T07:13:32;95793.19;;;11.70;100.00
23229;BME280;11783;50.350;6.576;2023-08-31T07:15:57;95793.75;;;11.72;100.00
23229;BME280;11783;50.350;6.576;2023-08-31T07:18:23;95798.03;;;11.78;100.00
23229;BME280;11783;50.350;6.576;2023-08-31T07:20:48;95785.50;;;11.73;100.00
23229;BME280;11783;50.350;6.576;2023-08-31T07:23:13;95793.81;;;11.82;100.00
23229;BME280;11783;50.350;6.576;2023-08-31T07:25:39;95804.72;;;11.86;100.00
23229;BME280;11783;50.350;6.576;2023-08-31T07:28:05;95795.97;;;11.90;100.00
23229;BME280;11783;50.350;6.576;2023-08-31T07:30:30;95804.50;;;11.92;100.00
23229;BME280;11783;50.350;6.576;2023-08-31T07:32:56;95798.91;;;11.99;100.00
23229;BME280;11783;50.350;6.576;2023-08-31T07:35:21;95804.53;;;12.02;100.00
23229;BME280;11783;50.350;6.576;2023-08-31T07:37:46;95804.03;;;12.10;100.00
23229;BME280;11783;50.350;6.576;2023-08-31T07:40:12;95815.75;;;12.15;100.00
23229;BME280;11783;50.350;6.576;2023-08-31T07:42:37;95811.22;;;12.20;100.00
23229;BME280;11783;50.350;6.576;2023-08-31T07:45:03;95815.53;;;12.31;100.00
23229;BME280;11783;50.350;6.576;2023-08-31T07:47:30;95808.59;;;12.40;100.00
23229;BME280;11783;50.350;6.576;2023-08-31T07:49:56;95820.09;;;12.46;100.00
23229;BME280;11783;50.350;6.576;2023-08-31T07:52:21;95818.50;;;12.55;100.00
23229;BME280;11783;50.350;6.576;2023-08-31T07:54:47;95826.75;;;12.59;100.00
23229;BME280;11783;50.350;6.576;2023-08-31T07:57:12;95822.22;;;12.74;100.00
23229;BME280;11783;50.350;6.576;2023-08-31T07:59:37;95831.31;;;12.89;100.00
23229;BME280;11783;50.350;6.576;2023-08-31T08:02:05;95825.19;;;12.88;100.00
23229;BME280;11783;50.350;6.576;2023-08-31T08:04:30;95835.56;;;12.95;100.00
23229;BME280;11783;50.350;6.576;2023-08-31T08:06:56;95827.81;;;12.98;100.00
23229;BME280;11783;50.350;6.576;2023-08-31T08:09:21;95837.72;;;13.08;100.00
23229;BME280;11783;50.350;6.576;2023-08-31T08:11:47;95837.69;;;13.13;100.00
23229;BME280;11783;50.350;6.576;2023-08-31T08:14:12;95841.44;;;13.07;100.00
23229;BME280;11783;50.350;6.576;2023-08-31T08:16:37;95836.09;;;13.38;100.00
23229;BME280;11783;50.350;6.576;2023-08-31T08:19:03;95847.28;;;13.50;100.00
23229;BME280;11783;50.350;6.576;2023-08-31T08:21:28;95849.44;;;13.32;100.00
23229;BME280;11783;50.350;6.576;2023-08-31T08:23:53;95846.22;;;13.36;100.00
23229;BME280;11783;50.350;6.576;2023-08-31T08:26:19;95840.59;;;13.52;100.00
23229;BME280;11783;50.350;6.576;2023-08-31T08:28:44;95844.59;;;13.60;100.00
23229;BME280;11783;50.350;6.576;2023-08-31T08:31:11;95848.31;;;13.69;100.00
23229;BME280;11783;50.350;6.576;2023-08-31T08:33:36;95847.22;;;13.75;100.00
23229;BME280;11783;50.350;6.576;2023-08-31T08:36:01;95856.28;;;13.84;100.00
23229;BME280;11783;50.350;6.576;2023-08-31T08:38:27;95855.41;;;13.94;100.00
23229;BME280;11783;50.350;6.576;2023-08-31T08:40:53;95854.59;;;14.04;100.00
23229;BME280;11783;50.350;6.576;2023-08-31T08:43:24;95857.34;;;13.83;100.00
23229;BME280;11783;50.350;6.576;2023-08-31T08:45:50;95862.38;;;14.00;100.00
23229;BME280;11783;50.350;6.576;2023-08-31T08:48:17;95864.47;;;14.13;100.00
23229;BME280;11783;50.350;6.576;2023-08-31T08:50:43;95869.09;;;13.82;100.00
23229;BME280;11783;50.350;6.576;2023-08-31T08:53:08;95868.19;;;14.07;100.00
23229;BME280;11783;50.350;6.576;2023-08-31T08:55:34;95867.25;;;14.42;100.00
23229;BME280;11783;50.350;6.576;2023-08-31T08:58:00;95862.88;;;14.62;100.00
23229;BME280;11783;50.350;6.576;2023-08-31T09:00:26;95875.56;;;14.85;100.00
23229;BME280;11783;50.350;6.576;2023-08-31T09:02:52;95873.06;;;14.99;100.00
23229;BME280;11783;50.350;6.576;2023-08-31T09:05:18;95883.72;;;15.04;98.70
23229;BME280;11783;50.350;6.576;2023-08-31T09:08:25;95885.47;;;15.53;100.00
23229;BME280;11783;50.350;6.576;2023-08-31T09:10:51;95877.63;;;15.61;96.96
23229;BME280;11783;50.350;6.576;2023-08-31T09:13:16;95870.75;;;15.79;97.86
23229;BME280;11783;50.350;6.576;2023-08-31T09:15:46;95874.69;;;16.11;100.00
23229;BME280;11783;50.350;6.576;2023-08-31T09:18:29;95870.97;;;16.49;95.95
23229;BME280;11783;50.350;6.576;2023-08-31T09:20:57;95874.63;;;16.40;86.12
23229;BME280;11783;50.350;6.576;2023-08-31T09:23:23;95875.31;;;16.69;92.82
23229;BME280;11783;50.350;6.576;2023-08-31T09:25:53;95866.41;;;16.74;91.77
23229;BME280;11783;50.350;6.576;2023-08-31T09:28:20;95881.34;;;16.80;86.24
23229;BME280;11783;50.350;6.576;2023-08-31T09:30:47;95867.19;;;16.93;91.28
23229;BME280;11783;50.350;6.576;2023-08-31T09:33:14;95866.88;;;17.13;92.84
23229;BME280;11783;50.350;6.576;2023-08-31T09:35:47;95879.31;;;17.23;92.37
23229;BME280;11783;50.350;6.576;2023-08-31T09:38:14;95866.19;;;17.21;85.94
23229;BME280;11783;50.350;6.576;2023-08-31T09:40:39;95858.78;;;17.46;86.86
23229;BME280;11783;50.350;6.576;2023-08-31T09:43:05;95857.00;;;17.74;87.79
23229;BME280;11783;50.350;6.576;2023-08-31T09:45:31;95861.38;;;17.97;79.61
23229;BME280;11783;50.350;6.576;2023-08-31T09:47:59;95864.06;;;17.97;82.40
23229;BME280;11783;50.350;6.576;2023-08-31T09:50:28;95866.16;;;17.73;74.90
23229;BME280;11783;50.350;6.576;2023-08-31T09:52:55;95867.63;;;17.79;78.80
23229;BME280;11783;50.350;6.576;2023-08-31T09:55:25;95867.97;;;18.05;85.23
23229;BME280;11783;50.350;6.576;2023-08-31T09:57:56;95875.22;;;18.32;80.53
23229;BME280;11783;50.350;6.576;2023-08-31T10:00:22;95870.63;;;18.46;78.87
23229;BME280;11783;50.350;6.576;2023-08-31T10:02:48;95865.81;;;18.57;72.56
23229;BME280;11783;50.350;6.576;2023-08-31T10:05:15;95878.03;;;18.76;75.08
23229;BME280;11783;50.350;6.576;2023-08-31T10:07:41;95882.84;;;18.80;72.87
23229;BME280;11783;50.350;6.576;2023-08-31T10:10:08;95868.53;;;18.43;66.92
23229;BME280;11783;50.350;6.576;2023-08-31T10:12:35;95870.31;;;18.48;72.30
23229;BME280;11783;50.350;6.576;2023-08-31T10:15:01;95861.25;;;18.43;73.52
23229;BME280;11783;50.350;6.576;2023-08-31T10:17:28;95867.06;;;18.23;74.64
23229;BME280;11783;50.350;6.576;2023-08-31T10:19:54;95859.91;;;18.05;73.94
23229;BME280;11783;50.350;6.576;2023-08-31T10:22:20;95869.94;;;17.99;75.68
23229;BME280;11783;50.350;6.576;2023-08-31T10:25:02;95878.88;;;17.81;75.74
23229;BME280;11783;50.350;6.576;2023-08-31T10:27:36;95876.03;;;17.91;76.10
23229;BME280;11783;50.350;6.576;2023-08-31T10:30:24;95877.59;;;17.78;73.52
23229;BME280;11783;50.350;6.576;2023-08-31T10:38:16;95869.94;;;17.99;77.40
23229;BME280;11783;50.350;6.576;2023-08-31T10:40:42;95873.94;;;18.15;72.56
23229;BME280;11783;50.350;6.576;2023-08-31T10:43:15;95878.50;;;18.15;75.57
23229;BME280;11783;50.350;6.576;2023-08-31T10:45:44;95884.78;;;18.10;74.81
23229;BME280;11783;50.350;6.576;2023-08-31T10:48:09;95880.22;;;18.11;69.40
23229;BME280;11783;50.350;6.576;2023-08-31T10:50:41;95888.06;;;17.94;72.38
23229;BME280;11783;50.350;6.576;2023-08-31T10:53:10;95889.34;;;17.69;68.04
23229;BME280;11783;50.350;6.576;2023-08-31T10:55:52;95882.47;;;17.76;73.48
23229;BME280;11783;50.350;6.576;2023-08-31T10:58:18;95886.13;;;17.67;73.10
23229;BME280;11783;50.350;6.576;2023-08-31T11:00:51;95884.09;;;17.59;76.19
23229;BME280;11783;50.350;6.576;2023-08-31T11:03:17;95880.41;;;17.54;72.38
23229;BME280;11783;50.350;6.576;2023-08-31T11:05:52;95884.94;;;17.40;75.51
23229;BME280;11783;50.350;6.576;2023-08-31T11:08:24;95883.94;;;17.36;75.50
23229;BME280;11783;50.350;6.576;2023-08-31T11:10:51;95873.25;;;17.64;75.27
23229;BME280;11783;50.350;6.576;2023-08-31T11:13:19;95862.94;;;17.84;73.19
23229;BME280;11783;50.350;6.576;2023-08-31T11:15:45;95875.00;;;17.73;73.36
23229;BME280;11783;50.350;6.576;2023-08-31T11:18:11;95881.81;;;17.66;71.48
23229;BME280;11783;50.350;6.576;2023-08-31T11:20:37;95882.31;;;17.54;72.75
23229;BME280;11783;50.350;6.576;2023-08-31T11:23:03;95875.84;;;17.55;74.36
23229;BME280;11783;50.350;6.576;2023-08-31T11:25:30;95879.13;;;17.66;74.26
23229;BME280;11783;50.350;6.576;2023-08-31T11:28:00;95883.44;;;17.67;70.71
23229;BME280;11783;50.350;6.576;2023-08-31T11:30:28;95878.13;;;17.62;76.28
23229;BME280;11783;50.350;6.576;2023-08-31T11:32:54;95875.94;;;17.64;75.02
23229;BME280;11783;50.350;6.576;2023-08-31T11:35:23;95876.44;;;17.66;74.48
23229;BME280;11783;50.350;6.576;2023-08-31T11:37:51;95878.00;;;17.72;76.49
23229;BME280;11783;50.350;6.576;2023-08-31T11:40:17;95876.53;;;17.61;77.15
23229;BME280;11783;50.350;6.576;2023-08-31T11:42:43;95873.50;;;17.81;75.32
23229;BME280;11783;50.350;6.576;2023-08-31T11:45:10;95866.84;;;17.92;76.55
23229;BME280;11783;50.350;6.576;2023-08-31T11:47:36;95881.31;;;18.10;74.48
23229;BME280;11783;50.350;6.576;2023-08-31T11:50:05;95876.31;;;18.31;70.30
23229;BME280;11783;50.350;6.576;2023-08-31T11:52:31;95881.88;;;18.34;69.96
23229;BME280;11783;50.350;6.576;2023-08-31T11:54:56;95874.59;;;18.35;69.02
23229;BME280;11783;50.350;6.576;2023-08-31T11:57:28;95871.03;;;18.26;70.22
23229;BME280;11783;50.350;6.576;2023-08-31T11:59:55;95872.72;;;18.49;70.78
23229;BME280;11783;50.350;6.576;2023-08-31T12:02:21;95879.09;;;18.67;69.75
23229;BME280;11783;50.350;6.576;2023-08-31T12:04:46;95879.53;;;18.83;71.52
23229;BME280;11783;50.350;6.576;2023-08-31T12:07:17;95877.63;;;18.97;69.06
23229;BME280;11783;50.350;6.576;2023-08-31T12:09:42;95874.66;;;19.07;64.25
23229;BME280;11783;50.350;6.576;2023-08-31T12:12:13;95885.59;;;18.88;67.72
23229;BME280;11783;50.350;6.576;2023-08-31T12:14:38;95882.31;;;18.77;66.39
23229;BME280;11783;50.350;6.576;2023-08-31T12:17:08;95873.88;;;18.57;61.99
23229;BME280;11783;50.350;6.576;2023-08-31T12:19:37;95868.78;;;18.55;65.88
23229;BME280;11783;50.350;6.576;2023-08-31T12:22:03;95868.94;;;18.64;64.50
23229;BME280;11783;50.350;6.576;2023-08-31T12:24:29;95878.38;;;18.61;64.74
23229;BME280;11783;50.350;6.576;2023-08-31T12:26:54;95879.16;;;18.62;63.71
23229;BME280;11783;50.350;6.576;2023-08-31T12:29:21;95879.69;;;18.50;64.36
23229;BME280;11783;50.350;6.576;2023-08-31T12:31:47;95874.72;;;18.43;67.47
23229;BME280;11783;50.350;6.576;2023-08-31T12:34:12;95881.88;;;18.34;62.73
23229;BME280;11783;50.350;6.576;2023-08-31T12:36:38;95879.41;;;18.24;66.13
23229;BME280;11783;50.350;6.576;2023-08-31T12:39:06;95876.03;;;18.05;67.51
23229;BME280;11783;50.350;6.576;2023-08-31T12:41:34;95865.56;;;18.03;65.68
23229;BME280;11783;50.350;6.576;2023-08-31T12:43:59;95863.97;;;18.02;68.47
23229;BME280;11783;50.350;6.576;2023-08-31T12:46:25;95870.25;;;18.25;68.47
23229;BME280;11783;50.350;6.576;2023-08-31T12:48:51;95861.75;;;18.32;66.30
23229;BME280;11783;50.350;6.576;2023-08-31T12:51:18;95858.56;;;18.43;66.41
23229;BME280;11783;50.350;6.576;2023-08-31T12:53:43;95858.75;;;18.47;65.04
23229;BME280;11783;50.350;6.576;2023-08-31T12:56:09;95858.16;;;18.50;65.46
23229;BME280;11783;50.350;6.576;2023-08-31T12:58:34;95867.44;;;18.44;67.56
23229;BME280;11783;50.350;6.576;2023-08-31T13:01:00;95869.41;;;18.52;67.66
23229;BME280;11783;50.350;6.576;2023-08-31T13:03:26;95881.19;;;18.42;65.50